createdAt,value
2023-01-12T00:02:25.022Z,94525.00
2023-01-12T00:04:51.929Z,94524.00
2023-01-12T00:07:20.266Z,94531.00
2023-01-12T00:09:49.545Z,94537.00
2023-01-12T00:12:16.492Z,94533.00
2023-01-12T00:14:43.502Z,94541.00
2023-01-12T00:17:12.047Z,94529.00
2023-01-12T00:19:40.075Z,94525.00
2023-01-12T00:22:13.107Z,94526.00
2023-01-12T00:24:44.026Z,94532.00
2023-01-12T00:27:15.096Z,94528.00
2023-01-12T00:29:44.699Z,94530.00
2023-01-12T00:32:22.848Z,94542.00
2023-01-12T00:34:49.986Z,94533.00
2023-01-12T00:37:19.843Z,94522.00
2023-01-12T00:40:00.745Z,94521.00
2023-01-12T00:42:47.544Z,94519.00
2023-01-12T00:45:26.410Z,94530.00
2023-01-12T00:47:53.947Z,94522.00
2023-01-12T00:50:20.903Z,94525.00
2023-01-12T00:52:50.196Z,94533.00
2023-01-12T00:55:24.534Z,94531.00
2023-01-12T00:57:53.590Z,94523.00
2023-01-12T01:00:20.580Z,94496.00
2023-01-12T01:02:49.702Z,94531.00
2023-01-12T01:05:17.840Z,94528.00
2023-01-12T01:07:46.816Z,94537.00
2023-01-12T01:10:19.275Z,94542.00
2023-01-12T01:12:46.239Z,94536.00
2023-01-12T01:15:17.679Z,94535.00
2023-01-12T01:17:44.560Z,94527.00
2023-01-12T01:20:14.660Z,94525.00
2023-01-12T01:22:46.622Z,94520.00
2023-01-12T01:25:13.643Z,94529.00
2023-01-12T01:27:43.135Z,94534.00
2023-01-12T01:30:11.257Z,94530.00
2023-01-12T01:32:38.125Z,94517.00
2023-01-12T01:35:05.440Z,94516.00
2023-01-12T01:37:32.306Z,94510.00
2023-01-12T01:39:59.208Z,94518.00
2023-01-12T01:42:31.694Z,94520.00
2023-01-12T01:45:00.104Z,94518.00
2023-01-12T01:47:42.981Z,94531.00
2023-01-12T01:50:18.966Z,94524.00
2023-01-12T01:52:53.201Z,94533.00
2023-01-12T01:55:55.238Z,94547.00
2023-01-12T01:58:48.276Z,94547.00
2023-01-12T02:01:15.282Z,94545.00
2023-01-12T02:03:46.560Z,94531.00
2023-01-12T02:06:14.615Z,94531.00
2023-01-12T02:08:53.021Z,94524.00
2023-01-12T02:11:40.024Z,94513.00
2023-01-12T02:14:27.111Z,94513.00
2023-01-12T02:17:34.315Z,94513.00
2023-01-12T02:20:29.035Z,94507.00
2023-01-12T02:23:46.610Z,94507.00
2023-01-12T02:26:38.016Z,94511.00
2023-01-12T02:29:56.938Z,94510.00
2023-01-12T02:32:53.690Z,94505.00
2023-01-12T02:35:50.616Z,94494.00
2023-01-12T02:38:56.121Z,94498.00
2023-01-12T02:41:54.399Z,94491.00
2023-01-12T02:44:53.081Z,94478.00
2023-01-12T02:47:38.946Z,94474.00
2023-01-12T02:50:10.153Z,94474.00
2023-01-12T02:52:40.830Z,94463.00
2023-01-12T02:55:10.836Z,94461.00
2023-01-12T02:57:38.414Z,94454.00
2023-01-12T03:00:10.015Z,94469.00
2023-01-12T03:02:37.502Z,94456.00
2023-01-12T03:05:06.067Z,94456.00
2023-01-12T03:07:48.649Z,94442.00
2023-01-12T03:10:36.854Z,94445.00
2023-01-12T03:13:10.194Z,94467.00
2023-01-12T03:15:46.027Z,94456.00
2023-01-12T03:18:24.487Z,94460.00
2023-01-12T03:20:57.649Z,94462.00
2023-01-12T03:24:04.349Z,94469.00
2023-01-12T03:26:36.978Z,94458.00
2023-01-12T03:29:38.016Z,94457.00
2023-01-12T03:32:06.272Z,94468.00
2023-01-12T03:34:34.643Z,94459.00
2023-01-12T03:37:25.154Z,94472.00
2023-01-12T03:40:45.601Z,94473.00
2023-01-12T03:43:24.188Z,94456.00
2023-01-12T03:46:01.788Z,94449.00
2023-01-12T03:48:47.945Z,94442.00
2023-01-12T03:51:23.730Z,94448.00
2023-01-12T03:53:54.817Z,94428.00
2023-01-12T03:56:25.251Z,94441.00
2023-01-12T03:58:52.555Z,94427.00
2023-01-12T04:01:19.858Z,94436.00
2023-01-12T04:03:47.023Z,94428.00
2023-01-12T04:06:13.912Z,94425.00
2023-01-12T04:08:40.974Z,94426.00
2023-01-12T04:11:29.407Z,94436.00
2023-01-12T04:14:01.134Z,94439.00
2023-01-12T04:16:28.103Z,94428.00
2023-01-12T04:18:57.079Z,94437.00
2023-01-12T04:21:43.028Z,94422.00
2023-01-12T04:24:12.114Z,94434.00
2023-01-12T04:26:38.951Z,94433.00
2023-01-12T04:29:05.945Z,94436.00
2023-01-12T04:31:38.678Z,94433.00
2023-01-12T04:34:08.481Z,94447.00
2023-01-12T04:36:35.405Z,94434.00
2023-01-12T04:39:04.492Z,94424.00
2023-01-12T04:41:31.313Z,94428.00
2023-01-12T04:44:00.646Z,94435.00
2023-01-12T04:46:29.984Z,94429.00
2023-01-12T04:48:59.306Z,94421.00
2023-01-12T04:51:26.412Z,94433.00
2023-01-12T04:53:53.929Z,94433.00
2023-01-12T04:56:21.139Z,94449.00
2023-01-12T04:58:48.188Z,94439.00
2023-01-12T05:01:22.512Z,94433.00
2023-01-12T05:03:49.647Z,94440.00
2023-01-12T05:06:19.069Z,94441.00
2023-01-12T05:09:04.381Z,94429.00
2023-01-12T05:11:31.245Z,94426.00
2023-01-12T05:13:58.146Z,94425.00
2023-01-12T05:16:26.070Z,94408.00
2023-01-12T05:18:54.288Z,94421.00
2023-01-12T05:21:22.505Z,94411.00
2023-01-12T05:23:52.047Z,94418.00
2023-01-12T05:26:21.592Z,94411.00
2023-01-12T05:28:50.503Z,94416.00
2023-01-12T05:31:19.375Z,94410.00
2023-01-12T05:33:46.403Z,94411.00
2023-01-12T05:36:15.674Z,94412.00
2023-01-12T05:38:42.887Z,94418.00
2023-01-12T05:41:14.814Z,94424.00
2023-01-12T05:43:52.183Z,94425.00
2023-01-12T05:46:30.412Z,94427.00
2023-01-12T05:49:00.134Z,94424.00
2023-01-12T05:51:30.786Z,94417.00
2023-01-12T05:53:57.738Z,94412.00
2023-01-12T05:56:30.973Z,94422.00
2023-01-12T05:59:01.001Z,94422.00
2023-01-12T06:01:29.355Z,94413.00
2023-01-12T06:04:01.126Z,94407.00
2023-01-12T06:06:33.326Z,94420.00
2023-01-12T06:09:01.687Z,94416.00
2023-01-12T06:11:47.105Z,94422.00
2023-01-12T06:14:14.262Z,94427.00
2023-01-12T06:16:43.228Z,94432.00
2023-01-12T06:19:13.673Z,94428.00
2023-01-12T06:21:41.273Z,94424.00
2023-01-12T06:24:08.974Z,94421.00
2023-01-12T06:26:35.846Z,94413.00
2023-01-12T06:29:06.996Z,94427.00
2023-01-12T06:31:34.136Z,94425.00
2023-01-12T06:34:01.044Z,94427.00
2023-01-12T06:36:31.067Z,94419.00
2023-01-12T06:39:00.408Z,94413.00
2023-01-12T06:41:45.665Z,94411.00
2023-01-12T06:44:12.581Z,94407.00
2023-01-12T06:46:39.584Z,94408.00
2023-01-12T06:49:06.740Z,94401.00
2023-01-12T06:51:35.710Z,94396.00
2023-01-12T06:54:04.958Z,94383.00
2023-01-12T06:56:31.894Z,94388.00
2023-01-12T06:58:58.811Z,94381.00
2023-01-12T07:01:28.251Z,94377.00
2023-01-12T07:03:55.174Z,94373.00
2023-01-12T07:06:24.355Z,94381.00
2023-01-12T07:08:56.159Z,94379.00
2023-01-12T07:11:25.422Z,94385.00
2023-01-12T07:13:52.301Z,94369.00
2023-01-12T07:16:19.273Z,94359.00
2023-01-12T07:18:47.423Z,94354.00
2023-01-12T07:21:16.737Z,94353.00
2023-01-12T07:23:43.774Z,94353.00
2023-01-12T07:26:13.420Z,94353.00
2023-01-12T07:28:43.000Z,94359.00
2023-01-12T07:31:09.943Z,94362.00
2023-01-12T07:33:39.971Z,94373.00
2023-01-12T07:36:09.395Z,94365.00
2023-01-12T07:38:37.343Z,94378.00
2023-01-12T07:41:26.415Z,94371.00
2023-01-12T07:43:53.339Z,94368.00
2023-01-12T07:46:22.742Z,94368.00
2023-01-12T07:48:49.992Z,94371.00
2023-01-12T07:51:16.885Z,94366.00
2023-01-12T07:53:47.342Z,94368.00
2023-01-12T07:56:16.153Z,94373.00
2023-01-12T07:58:43.732Z,94367.00
2023-01-12T08:01:10.662Z,94371.00
2023-01-12T08:03:39.294Z,94367.00
2023-01-12T08:06:06.725Z,94364.00
2023-01-12T08:08:33.882Z,94371.00
2023-01-12T08:11:10.079Z,94374.00
2023-01-12T08:13:38.390Z,94382.00
2023-01-12T08:16:22.487Z,94376.00
2023-01-12T08:19:01.498Z,94382.00
2023-01-12T08:21:34.667Z,94365.00
2023-01-12T08:24:08.708Z,94362.00
2023-01-12T08:26:40.158Z,94353.00
2023-01-12T08:29:32.204Z,94344.00
2023-01-12T08:34:42.351Z,94365.00
2023-01-12T08:37:14.316Z,94362.00
2023-01-12T08:39:43.784Z,94354.00
2023-01-12T08:42:10.856Z,94366.00
2023-01-12T08:44:38.669Z,94362.00
2023-01-12T08:47:18.165Z,94385.00
2023-01-12T08:49:46.289Z,94379.00
2023-01-12T08:52:14.805Z,94365.00
2023-01-12T08:54:42.038Z,94389.00
2023-01-12T08:57:09.079Z,94376.00
2023-01-12T08:59:36.093Z,94378.00
2023-01-12T09:02:03.351Z,94382.00
2023-01-12T09:04:32.540Z,94366.00
2023-01-12T09:07:01.501Z,94372.00
2023-01-12T09:09:28.367Z,94376.00
2023-01-12T09:11:55.304Z,94370.00
2023-01-12T09:14:22.144Z,94368.00
2023-01-12T09:16:49.802Z,94370.00
2023-01-12T09:19:16.791Z,94381.00
2023-01-12T09:21:44.615Z,94383.00
2023-01-12T09:24:14.445Z,94394.00
2023-01-12T09:26:48.860Z,94389.00
2023-01-12T09:29:15.751Z,94394.00
2023-01-12T09:31:46.331Z,94396.00
2023-01-12T09:34:13.404Z,94397.00
2023-01-12T09:36:44.661Z,94384.00
2023-01-12T09:39:26.771Z,94377.00
2023-01-12T09:42:16.192Z,94384.00
2023-01-12T09:45:08.882Z,94374.00
2023-01-12T09:47:57.845Z,94371.00
2023-01-12T09:50:42.206Z,94380.00
2023-01-12T09:53:34.227Z,94382.00
2023-01-12T09:56:11.905Z,94389.00
2023-01-12T09:59:09.181Z,94400.00
2023-01-12T10:01:37.369Z,94406.00
2023-01-12T10:04:08.324Z,94409.00
2023-01-12T10:06:36.506Z,94413.00
2023-01-12T10:09:10.042Z,94418.00
2023-01-12T10:12:17.777Z,94438.00
2023-01-12T10:15:18.579Z,94435.00
2023-01-12T10:18:11.869Z,94419.00
2023-01-12T10:20:45.267Z,94421.00
2023-01-12T10:23:24.608Z,94411.00
2023-01-12T10:26:05.611Z,94409.00
2023-01-12T10:28:38.375Z,94409.00
2023-01-12T10:31:11.369Z,94407.00
2023-01-12T10:33:38.272Z,94414.00
2023-01-12T10:36:17.374Z,94398.00
2023-01-12T10:39:00.908Z,94401.00
2023-01-12T10:41:35.396Z,94400.00
2023-01-12T10:44:17.642Z,94399.00
2023-01-12T10:47:08.353Z,94406.00
2023-01-12T10:49:38.293Z,94398.00
2023-01-12T10:52:23.400Z,94391.00
2023-01-12T10:54:55.826Z,94393.00
2023-01-12T10:57:24.532Z,94376.00
2023-01-12T10:59:56.412Z,94367.00
2023-01-12T11:02:28.883Z,94368.00
2023-01-12T11:04:55.915Z,94357.00
2023-01-12T11:07:26.402Z,94361.00
2023-01-12T11:09:55.060Z,94351.00
2023-01-12T11:12:35.014Z,94358.00
2023-01-12T11:15:23.268Z,94352.00
2023-01-12T11:17:51.638Z,94349.00
2023-01-12T11:20:43.254Z,94355.00
2023-01-12T11:23:39.261Z,94346.00
2023-01-12T11:26:30.882Z,94329.00
2023-01-12T11:29:25.781Z,94311.00
2023-01-12T11:32:00.995Z,94316.00
2023-01-12T11:34:34.819Z,94312.00
2023-01-12T11:37:12.455Z,94315.00
2023-01-12T11:39:43.774Z,94323.00
2023-01-12T11:42:44.176Z,94315.00
2023-01-12T11:45:28.311Z,94316.00
2023-01-12T11:48:07.082Z,94312.00
2023-01-12T11:50:39.445Z,94317.00
2023-01-12T11:53:16.640Z,94309.00
2023-01-12T11:56:29.280Z,94311.00
2023-01-12T11:59:41.578Z,94301.00
2023-01-12T12:02:34.052Z,94293.00
2023-01-12T12:05:25.120Z,94290.00
2023-01-12T12:08:02.566Z,94287.00
2023-01-12T12:11:01.114Z,94284.00
2023-01-12T12:13:51.634Z,94286.00
2023-01-12T12:16:30.181Z,94286.00
2023-01-12T12:19:09.244Z,94280.00
2023-01-12T12:22:05.210Z,94262.00
2023-01-12T12:24:42.288Z,94282.00
2023-01-12T12:27:49.697Z,94276.00
2023-01-12T12:30:38.234Z,94281.00
2023-01-12T12:33:11.309Z,94267.00
2023-01-12T12:35:41.579Z,94266.00
2023-01-12T12:38:28.850Z,94264.00
2023-01-12T12:41:42.283Z,94257.00
2023-01-12T12:44:55.452Z,94263.00
2023-01-12T12:47:49.915Z,94260.00
2023-01-12T12:50:24.266Z,94255.00
2023-01-12T12:53:19.703Z,94258.00
2023-01-12T12:55:52.447Z,94247.00
2023-01-12T12:58:41.218Z,94234.00
2023-01-12T13:01:23.375Z,94232.00
2023-01-12T13:03:56.803Z,94249.00
2023-01-12T13:06:32.952Z,94250.00
2023-01-12T13:09:14.999Z,94257.00
2023-01-12T13:11:54.880Z,94250.00
2023-01-12T13:14:40.001Z,94251.00
2023-01-12T13:17:18.798Z,94264.00
2023-01-12T13:20:24.506Z,94261.00
2023-01-12T13:22:52.347Z,94260.00
2023-01-12T13:25:26.494Z,94255.00
2023-01-12T13:28:05.260Z,94267.00
2023-01-12T13:30:32.072Z,94264.00
2023-01-12T13:33:24.032Z,94264.00
2023-01-12T13:35:53.156Z,94252.00
2023-01-12T13:38:55.936Z,94263.00
2023-01-12T13:41:49.556Z,94266.00
2023-01-12T13:44:44.436Z,94264.00
2023-01-12T13:47:22.774Z,94254.00
2023-01-12T13:49:54.202Z,94253.00
2023-01-12T13:52:32.188Z,94247.00
2023-01-12T13:54:59.640Z,94246.00
2023-01-12T13:57:31.154Z,94234.00
2023-01-12T14:00:09.525Z,94229.00
2023-01-12T14:02:41.498Z,94243.00
2023-01-12T14:05:41.416Z,94236.00
2023-01-12T14:08:51.799Z,94235.00
2023-01-12T14:11:37.422Z,94231.00
2023-01-12T14:14:57.045Z,94249.00
2023-01-12T14:17:49.157Z,94236.00
2023-01-12T14:20:22.646Z,94242.00
2023-01-12T14:23:11.427Z,94248.00
2023-01-12T14:25:38.299Z,94231.00
2023-01-12T14:28:05.289Z,94235.00
2023-01-12T14:30:36.491Z,94226.00
2023-01-12T14:33:14.476Z,94219.00
2023-01-12T14:35:46.983Z,94216.00
2023-01-12T14:38:18.869Z,94217.00
2023-01-12T14:41:00.832Z,94216.00
2023-01-12T14:43:53.837Z,94218.00
2023-01-12T14:46:38.343Z,94215.00
2023-01-12T14:49:20.721Z,94217.00
2023-01-12T14:52:17.663Z,94211.00
2023-01-12T14:54:47.308Z,94206.00
2023-01-12T14:57:37.039Z,94211.00
2023-01-12T15:00:20.560Z,94220.00
2023-01-12T15:02:52.677Z,94227.00
2023-01-12T15:05:26.397Z,94231.00
2023-01-12T15:08:07.084Z,94228.00
2023-01-12T15:10:37.613Z,94216.00
2023-01-12T15:13:33.475Z,94223.00
2023-01-12T15:16:20.073Z,94216.00
2023-01-12T15:19:08.574Z,94215.00
2023-01-12T15:21:55.901Z,94204.00
2023-01-12T15:24:46.611Z,94209.00
2023-01-12T15:27:18.105Z,94210.00
2023-01-12T15:29:45.622Z,94216.00
2023-01-12T15:32:51.625Z,94210.00
2023-01-12T15:35:23.475Z,94213.00
2023-01-12T15:37:55.984Z,94214.00
2023-01-12T15:40:30.373Z,94223.00
2023-01-12T15:42:59.858Z,94213.00
2023-01-12T15:45:34.530Z,94210.00
2023-01-12T15:48:08.499Z,94219.00
2023-01-12T15:50:42.089Z,94212.00
2023-01-12T15:53:21.475Z,94214.00
2023-01-12T15:55:49.348Z,94218.00
2023-01-12T15:58:17.071Z,94220.00
2023-01-12T16:00:46.663Z,94207.00
2023-01-12T16:03:48.996Z,94218.00
2023-01-12T16:06:06.662Z,94214.00
2023-01-12T16:08:33.572Z,94211.00
2023-01-12T16:11:17.743Z,94204.00
2023-01-12T16:13:48.008Z,94211.00
2023-01-12T16:16:18.376Z,94201.00
2023-01-12T16:18:45.349Z,94210.00
2023-01-12T16:21:18.559Z,94206.00
2023-01-12T16:23:49.739Z,94211.00
2023-01-12T16:26:23.808Z,94204.00
2023-01-12T16:28:50.749Z,94209.00
2023-01-12T16:31:18.344Z,94200.00
2023-01-12T16:33:47.855Z,94204.00
2023-01-12T16:36:17.303Z,94200.00
2023-01-12T16:38:46.562Z,94201.00
2023-01-12T16:41:22.566Z,94195.00
2023-01-12T16:43:50.464Z,94189.00
2023-01-12T16:46:17.795Z,94191.00
2023-01-12T16:48:47.291Z,94183.00
2023-01-12T16:51:19.179Z,94178.00
2023-01-12T16:53:48.159Z,94188.00
2023-01-12T16:56:16.422Z,94182.00
2023-01-12T16:58:47.969Z,94181.00
2023-01-12T17:01:21.310Z,94166.00
2023-01-12T17:03:53.644Z,94181.00
2023-01-12T17:06:23.997Z,94184.00
2023-01-12T17:08:51.037Z,94183.00
2023-01-12T17:11:24.122Z,94176.00
2023-01-12T17:13:56.135Z,94188.00
2023-01-12T17:16:29.548Z,94187.00
2023-01-12T17:18:57.040Z,94190.00
2023-01-12T17:21:26.507Z,94179.00
2023-01-12T17:23:53.496Z,94173.00
2023-01-12T17:26:20.617Z,94179.00
2023-01-12T17:28:50.306Z,94177.00
2023-01-12T17:31:20.553Z,94170.00
2023-01-12T17:33:47.703Z,94178.00
2023-01-12T17:36:20.671Z,94183.00
2023-01-12T17:38:52.380Z,94171.00
2023-01-12T17:41:37.666Z,94176.00
2023-01-12T17:44:05.833Z,94157.00
2023-01-12T17:46:33.833Z,94163.00
2023-01-12T17:49:08.727Z,94158.00
2023-01-12T17:51:41.289Z,94158.00
2023-01-12T17:54:13.992Z,94150.00
2023-01-12T17:56:43.450Z,94148.00
2023-01-12T17:59:18.115Z,94144.00
2023-01-12T18:01:46.612Z,94130.00
2023-01-12T18:04:17.501Z,94142.00
2023-01-12T18:06:50.047Z,94138.00
2023-01-12T18:09:17.716Z,94139.00
2023-01-12T18:11:44.836Z,94135.00
2023-01-12T18:14:14.586Z,94137.00
2023-01-12T18:16:43.839Z,94121.00
2023-01-12T18:19:14.964Z,94127.00
2023-01-12T18:21:41.926Z,94128.00
2023-01-12T18:24:09.219Z,94114.00
2023-01-12T18:26:41.243Z,94117.00
2023-01-12T18:29:10.666Z,94117.00
2023-01-12T18:31:42.721Z,94119.00
2023-01-12T18:34:14.281Z,94123.00
2023-01-12T18:36:43.807Z,94115.00
2023-01-12T18:39:19.077Z,94108.00
2023-01-12T18:42:04.865Z,94104.00
2023-01-12T18:44:32.825Z,94112.00
2023-01-12T18:47:21.891Z,94098.00
2023-01-12T18:49:51.823Z,94106.00
2023-01-12T18:52:37.301Z,94096.00
2023-01-12T18:55:07.229Z,94109.00
2023-01-12T18:57:34.667Z,94122.00
2023-01-12T19:00:16.888Z,94111.00
2023-01-12T19:02:47.029Z,94114.00
2023-01-12T19:05:21.934Z,94126.00
2023-01-12T19:07:51.450Z,94122.00
2023-01-12T19:10:20.959Z,94108.00
2023-01-12T19:12:50.051Z,94108.00
2023-01-12T19:15:35.337Z,94108.00
2023-01-12T19:18:02.265Z,94106.00
2023-01-12T19:20:30.413Z,94101.00
2023-01-12T19:23:19.180Z,94099.00
2023-01-12T19:26:04.819Z,94094.00
2023-01-12T19:28:38.309Z,94094.00
2023-01-12T19:31:10.015Z,94086.00
2023-01-12T19:33:38.083Z,94090.00
2023-01-12T19:36:09.072Z,94085.00
2023-01-12T19:38:42.561Z,94081.00
2023-01-12T19:41:30.463Z,94072.00
2023-01-12T19:44:01.310Z,94074.00
2023-01-12T19:46:28.373Z,94057.00
2023-01-12T19:48:57.801Z,94058.00
2023-01-12T19:51:26.938Z,94074.00
2023-01-12T19:53:56.917Z,94076.00
2023-01-12T19:56:24.021Z,94076.00
2023-01-12T19:58:55.621Z,94078.00
2023-01-12T20:01:23.404Z,94065.00
2023-01-12T20:03:53.581Z,94069.00
2023-01-12T20:06:20.554Z,94078.00
2023-01-12T20:08:50.143Z,94074.00
2023-01-12T20:11:17.059Z,94079.00
2023-01-12T20:13:48.547Z,94082.00
2023-01-12T20:16:15.585Z,94086.00
2023-01-12T20:18:44.836Z,94075.00
2023-01-12T20:21:12.586Z,94064.00
2023-01-12T20:23:39.574Z,94064.00
2023-01-12T20:26:12.507Z,94055.00
2023-01-12T20:28:40.355Z,94042.00
2023-01-12T20:31:15.897Z,94062.00
2023-01-12T20:33:43.119Z,94054.00
2023-01-12T20:36:13.983Z,94073.00
2023-01-12T20:38:41.244Z,94071.00
2023-01-12T20:41:10.200Z,94062.00
2023-01-12T20:43:41.732Z,94050.00
2023-01-12T20:46:10.677Z,94055.00
2023-01-12T20:48:37.986Z,94057.00
2023-01-12T20:51:10.574Z,94048.00
2023-01-12T20:53:39.999Z,94047.00
2023-01-12T20:56:08.033Z,94053.00
2023-01-12T20:58:35.527Z,94042.00
2023-01-12T21:01:17.289Z,94047.00
2023-01-12T21:03:44.661Z,94052.00
2023-01-12T21:06:14.873Z,94047.00
2023-01-12T21:08:46.014Z,94049.00
2023-01-12T21:11:23.716Z,94048.00
2023-01-12T21:13:50.733Z,94038.00
2023-01-12T21:16:20.612Z,94045.00
2023-01-12T21:18:49.149Z,94045.00
2023-01-12T21:21:16.794Z,94032.00
2023-01-12T21:23:44.017Z,94038.00
2023-01-12T21:26:11.349Z,94043.00
2023-01-12T21:28:39.848Z,94043.00
2023-01-12T21:31:08.650Z,94043.00
2023-01-12T21:33:36.290Z,94046.00
2023-01-12T21:36:04.831Z,94036.00
2023-01-12T21:38:34.624Z,94047.00
2023-01-12T21:41:04.392Z,94054.00
2023-01-12T21:43:32.554Z,94043.00
2023-01-12T21:46:09.621Z,94041.00
2023-01-12T21:48:36.890Z,94030.00
2023-01-12T21:51:10.124Z,94023.00
2023-01-12T21:53:37.130Z,94004.00
2023-01-12T21:56:06.185Z,94016.00
2023-01-12T21:58:36.318Z,94013.00
2023-01-12T22:01:16.294Z,94016.00
2023-01-12T22:03:46.077Z,94004.00
2023-01-12T22:06:16.315Z,94010.00
2023-01-12T22:08:43.425Z,94011.00
2023-01-12T22:11:14.399Z,94014.00
2023-01-12T22:13:41.817Z,94018.00
2023-01-12T22:16:12.316Z,94029.00
2023-01-12T22:18:44.837Z,94028.00
2023-01-12T22:21:12.761Z,94042.00
2023-01-12T22:23:42.737Z,94048.00
2023-01-12T22:26:12.731Z,94052.00
2023-01-12T22:28:44.823Z,94041.00
2023-01-12T22:31:23.970Z,94042.00
2023-01-12T22:33:58.708Z,94031.00
2023-01-12T22:36:28.363Z,94040.00
2023-01-12T22:38:58.130Z,94034.00
2023-01-12T22:41:25.809Z,94024.00
2023-01-12T22:43:55.643Z,94011.00
2023-01-12T22:46:25.875Z,94004.00
2023-01-12T22:48:55.811Z,94009.00
2023-01-12T22:51:25.216Z,94009.00
2023-01-12T22:53:55.515Z,94005.00
2023-01-12T22:56:23.013Z,94004.00
2023-01-12T22:58:52.757Z,93997.00
2023-01-12T23:01:21.203Z,94005.00
2023-01-12T23:03:49.704Z,94000.00
2023-01-12T23:06:19.611Z,94004.00
2023-01-12T23:08:46.543Z,94010.00
2023-01-12T23:11:25.603Z,94008.00
2023-01-12T23:13:54.832Z,94006.00
2023-01-12T23:16:24.912Z,94005.00
2023-01-12T23:18:52.809Z,94005.00
2023-01-12T23:21:27.081Z,93998.00
2023-01-12T23:24:00.564Z,93980.00
2023-01-12T23:26:35.108Z,93984.00
2023-01-12T23:29:08.350Z,93978.00
2023-01-12T23:31:37.976Z,93965.00
2023-01-12T23:34:04.915Z,93972.00
2023-01-12T23:36:31.945Z,93961.00
2023-01-12T23:39:05.008Z,93944.00
2023-01-12T23:41:35.748Z,93946.00
2023-01-12T23:44:06.110Z,93955.00
2023-01-12T23:46:38.979Z,93947.00
2023-01-12T23:49:09.361Z,93954.00
2023-01-12T23:51:38.521Z,93947.00
2023-01-12T23:54:07.889Z,93935.00
2023-01-12T23:56:34.863Z,93944.00
2023-01-12T23:59:01.831Z,93944.00
